createdAt,value
2017-11-25T00:01:25.289Z,18.70
2017-11-25T00:03:52.754Z,17.20
2017-11-25T00:06:20.269Z,19.03
2017-11-25T00:08:47.716Z,18.80
2017-11-25T00:11:15.190Z,18.30
2017-11-25T00:13:42.650Z,18.23
2017-11-25T00:16:10.110Z,19.83
2017-11-25T00:18:37.582Z,20.43
2017-11-25T00:21:05.047Z,21.27
2017-11-25T00:23:32.601Z,21.00
2017-11-25T00:26:00.061Z,20.10
2017-11-25T00:28:27.537Z,19.23
2017-11-25T00:30:54.995Z,19.93
2017-11-25T00:33:22.471Z,19.63
2017-11-25T00:35:50.701Z,21.30
2017-11-25T00:38:18.192Z,20.93
2017-11-25T00:40:46.418Z,21.23
2017-11-25T00:43:13.883Z,21.87
2017-11-25T00:45:41.349Z,21.00
2017-11-25T00:48:08.818Z,21.10
2017-11-25T00:50:36.348Z,20.80
2017-11-25T00:53:03.811Z,14.40
2017-11-25T00:55:31.280Z,13.00
2017-11-25T00:57:58.762Z,11.00
2017-11-25T01:00:26.684Z,6.87
2017-11-25T01:02:54.136Z,4.90
2017-11-25T01:05:21.593Z,4.53
2017-11-25T01:07:49.056Z,4.23
2017-11-25T01:10:16.513Z,4.20
2017-11-25T01:12:43.979Z,4.20
2017-11-25T01:15:11.452Z,4.40
2017-11-25T01:17:38.917Z,3.80
2017-11-25T01:20:06.415Z,3.13
2017-11-25T01:22:33.865Z,3.23
2017-11-25T01:25:01.320Z,2.77
2017-11-25T01:27:29.565Z,2.77
2017-11-25T01:29:57.050Z,4.10
2017-11-25T01:32:24.522Z,3.63
2017-11-25T01:34:52.091Z,3.27
2017-11-25T01:37:19.552Z,3.67
2017-11-25T01:39:47.211Z,4.13
2017-11-25T01:42:14.665Z,5.80
2017-11-25T01:44:42.134Z,6.00
2017-11-25T01:47:09.593Z,7.03
2017-11-25T01:49:37.073Z,6.33
2017-11-25T01:52:04.529Z,6.87
2017-11-25T01:54:32.025Z,6.87
2017-11-25T01:57:00.291Z,6.60
2017-11-25T01:59:28.634Z,4.70
2017-11-25T02:01:56.098Z,4.03
2017-11-25T02:04:23.552Z,3.17
2017-11-25T02:06:51.019Z,2.63
2017-11-25T02:09:18.491Z,2.50
2017-11-25T02:11:46.713Z,2.17
2017-11-25T02:14:14.290Z,2.40
2017-11-25T02:16:41.755Z,2.10
2017-11-25T02:19:09.215Z,1.87
2017-11-25T02:21:36.726Z,2.57
2017-11-25T02:24:04.236Z,2.27
2017-11-25T02:26:31.692Z,1.90
2017-11-25T02:28:59.148Z,2.00
2017-11-25T02:31:26.604Z,2.30
2017-11-25T02:33:54.088Z,2.17
2017-11-25T02:36:22.312Z,2.23
2017-11-25T02:38:49.758Z,2.40
2017-11-25T02:41:17.223Z,2.43
2017-11-25T02:43:44.689Z,3.00
2017-11-25T02:46:12.185Z,2.67
2017-11-25T02:48:40.416Z,2.90
2017-11-25T02:51:07.878Z,3.13
2017-11-25T02:53:35.339Z,3.40
2017-11-25T02:56:02.814Z,3.37
2017-11-25T02:58:30.773Z,3.50
2017-11-25T03:00:58.214Z,4.03
2017-11-25T03:03:25.676Z,4.97
2017-11-25T03:05:53.141Z,5.53
2017-11-25T03:08:20.625Z,6.30
2017-11-25T03:10:48.910Z,5.80
2017-11-25T03:13:17.141Z,4.97
2017-11-25T03:15:44.620Z,5.97
2017-11-25T03:18:12.081Z,6.13
2017-11-25T03:20:39.541Z,5.50
2017-11-25T03:23:07.774Z,6.20
2017-11-25T03:25:35.234Z,6.27
2017-11-25T03:28:02.709Z,5.50
2017-11-25T03:30:31.692Z,5.23
2017-11-25T03:32:59.190Z,5.23
2017-11-25T03:35:27.426Z,5.60
2017-11-25T03:37:54.901Z,4.50
2017-11-25T03:40:22.465Z,5.30
2017-11-25T03:42:49.925Z,4.67
2017-11-25T03:45:17.382Z,5.23
2017-11-25T03:47:45.610Z,4.60
2017-11-25T03:50:13.080Z,5.30
2017-11-25T03:52:40.521Z,4.87
2017-11-25T03:55:07.994Z,5.80
2017-11-25T03:57:35.477Z,5.70
2017-11-25T04:00:02.969Z,5.80
2017-11-25T04:02:30.448Z,5.50
2017-11-25T04:04:57.897Z,5.43
2017-11-25T04:10:00.004Z,5.30
2017-11-25T04:12:27.477Z,5.90
2017-11-25T04:14:55.940Z,5.63
2017-11-25T04:17:23.378Z,5.87
2017-11-25T04:19:50.853Z,5.77
2017-11-25T04:22:18.311Z,5.80
2017-11-25T04:24:45.830Z,5.80
2017-11-25T04:27:13.330Z,5.70
2017-11-25T04:29:40.912Z,6.17
2017-11-25T04:32:08.371Z,5.83
2017-11-25T04:34:35.856Z,5.40
2017-11-25T04:37:03.329Z,5.67
2017-11-25T04:39:30.799Z,5.87
2017-11-25T04:41:58.266Z,6.27
2017-11-25T04:44:25.747Z,5.53
2017-11-25T04:46:53.991Z,5.83
2017-11-25T04:49:21.438Z,6.67
2017-11-25T04:51:49.831Z,5.77
2017-11-25T04:54:17.279Z,7.10
2017-11-25T04:56:44.741Z,5.87
2017-11-25T04:59:12.209Z,6.23
2017-11-25T05:01:39.690Z,6.30
2017-11-25T05:04:07.151Z,6.10
2017-11-25T05:06:34.694Z,5.73
2017-11-25T05:09:02.368Z,5.87
2017-11-25T05:11:29.818Z,5.50
2017-11-25T05:13:57.280Z,6.10
2017-11-25T05:16:24.811Z,6.23
2017-11-25T05:18:52.257Z,5.70
2017-11-25T05:21:19.713Z,6.47
2017-11-25T05:23:47.182Z,5.97
2017-11-25T05:26:14.644Z,6.43
2017-11-25T05:28:42.112Z,6.63
2017-11-25T05:31:09.568Z,6.97
2017-11-25T05:33:37.038Z,6.60
2017-11-25T05:36:04.514Z,7.13
2017-11-25T05:38:32.729Z,7.30
2017-11-25T05:41:00.225Z,6.40
2017-11-25T05:43:27.680Z,7.10
2017-11-25T05:45:55.169Z,7.10
2017-11-25T05:48:22.641Z,6.70
2017-11-25T05:50:50.094Z,6.60
2017-11-25T05:53:17.560Z,6.07
2017-11-25T05:55:45.190Z,5.87
2017-11-25T05:58:13.417Z,6.83
2017-11-25T06:00:41.049Z,6.50
2017-11-25T06:03:08.521Z,6.23
2017-11-25T06:05:36.261Z,6.67
2017-11-25T06:08:03.833Z,6.40
2017-11-25T06:10:31.291Z,6.37
2017-11-25T06:12:58.746Z,6.20
2017-11-25T06:15:26.206Z,6.07
2017-11-25T06:17:53.977Z,6.50
2017-11-25T06:20:22.397Z,6.93
2017-11-25T06:22:50.649Z,6.40
2017-11-25T06:25:18.114Z,7.03
2017-11-25T06:27:45.609Z,6.90
2017-11-25T06:30:13.848Z,7.30
2017-11-25T06:32:41.927Z,6.47
2017-11-25T06:35:09.378Z,6.67
2017-11-25T06:37:36.909Z,6.43
2017-11-25T06:40:04.386Z,6.50
2017-11-25T06:42:31.870Z,6.53
2017-11-25T06:45:00.139Z,6.60
2017-11-25T06:47:27.602Z,6.57
2017-11-25T06:49:56.131Z,7.10
2017-11-25T06:52:23.621Z,7.13
2017-11-25T06:54:51.066Z,7.13
2017-11-25T06:57:18.537Z,7.50
2017-11-25T06:59:46.002Z,6.97
2017-11-25T07:02:13.452Z,7.73
2017-11-25T07:04:41.211Z,7.63
2017-11-25T07:07:08.666Z,8.27
2017-11-25T07:09:36.109Z,7.87
2017-11-25T07:14:37.509Z,8.90
2017-11-25T07:17:05.085Z,8.87
2017-11-25T07:19:33.324Z,9.60
2017-11-25T07:22:00.789Z,12.40
2017-11-25T07:24:28.258Z,12.50
2017-11-25T07:26:56.486Z,9.90
2017-11-25T07:29:23.961Z,10.23
2017-11-25T07:31:51.413Z,8.70
2017-11-25T07:34:18.993Z,8.10
2017-11-25T07:36:46.466Z,8.70
2017-11-25T07:39:14.839Z,7.90
2017-11-25T07:41:42.297Z,7.80
2017-11-25T07:44:10.518Z,7.50
2017-11-25T07:46:38.000Z,6.60
2017-11-25T07:49:05.584Z,5.50
2017-11-25T07:51:33.045Z,4.50
2017-11-25T07:54:01.269Z,5.10
2017-11-25T07:56:28.722Z,5.30
2017-11-25T07:58:56.178Z,5.00
2017-11-25T08:01:23.646Z,5.23
2017-11-25T08:03:51.101Z,5.10
2017-11-25T08:06:18.567Z,4.97
2017-11-25T08:08:46.038Z,3.97
2017-11-25T08:11:13.522Z,4.17
2017-11-25T08:13:41.769Z,3.83
2017-11-25T08:16:09.221Z,3.50
2017-11-25T08:18:36.690Z,3.70
2017-11-25T08:21:04.190Z,3.30
2017-11-25T08:23:31.729Z,3.60
2017-11-25T08:25:59.974Z,3.63
2017-11-25T08:28:27.449Z,3.17
2017-11-25T08:30:55.022Z,2.70
2017-11-25T08:33:23.238Z,3.00
2017-11-25T08:35:50.700Z,3.67
2017-11-25T08:38:18.801Z,3.70
2017-11-25T08:40:46.251Z,3.90
2017-11-25T08:43:15.221Z,4.60
2017-11-25T08:45:42.729Z,5.07
2017-11-25T08:48:10.978Z,5.87
2017-11-25T08:50:38.431Z,4.57
2017-11-25T08:53:05.893Z,4.93
2017-11-25T08:55:33.350Z,4.80
2017-11-25T08:58:00.830Z,5.47
2017-11-25T09:00:29.059Z,4.77
2017-11-25T09:02:56.525Z,4.30
2017-11-25T09:05:24.009Z,3.83
2017-11-25T09:07:51.513Z,3.70
2017-11-25T09:10:18.969Z,3.60
2017-11-25T09:12:46.429Z,3.80
2017-11-25T09:15:13.876Z,3.60
2017-11-25T09:17:41.348Z,4.00
2017-11-25T09:20:09.293Z,6.40
2017-11-25T09:22:36.741Z,5.97
2017-11-25T09:25:04.201Z,4.60
2017-11-25T09:27:31.672Z,4.13
2017-11-25T09:29:59.113Z,4.10
2017-11-25T09:32:26.585Z,4.13
2017-11-25T09:34:54.047Z,4.10
2017-11-25T09:37:21.648Z,3.83
2017-11-25T09:39:49.102Z,4.93
2017-11-25T09:42:17.331Z,5.27
2017-11-25T09:44:44.784Z,5.83
2017-11-25T09:47:12.281Z,5.97
2017-11-25T09:49:39.770Z,6.37
2017-11-25T09:52:11.185Z,6.40
2017-11-25T09:54:38.657Z,6.60
2017-11-25T09:57:06.128Z,5.97
2017-11-25T09:59:33.594Z,6.40
2017-11-25T10:02:01.881Z,7.90
2017-11-25T10:04:30.128Z,9.13
2017-11-25T10:06:57.595Z,7.20
2017-11-25T10:09:25.835Z,5.80
2017-11-25T10:11:53.296Z,5.63
2017-11-25T10:14:20.768Z,5.90
2017-11-25T10:16:48.218Z,5.07
2017-11-25T10:19:15.670Z,5.77
2017-11-25T10:21:43.237Z,6.33
2017-11-25T10:24:10.910Z,5.27
2017-11-25T10:26:38.385Z,5.97
2017-11-25T10:29:06.730Z,6.50
2017-11-25T10:31:34.200Z,5.93
2017-11-25T10:34:01.643Z,5.90
2017-11-25T10:36:29.185Z,5.13
2017-11-25T10:38:56.641Z,5.83
2017-11-25T10:41:24.113Z,5.70
2017-11-25T10:43:51.575Z,5.53
2017-11-25T10:46:19.045Z,5.83
2017-11-25T10:48:48.005Z,5.83
2017-11-25T10:51:15.653Z,6.83
2017-11-25T10:53:43.117Z,6.43
2017-11-25T10:56:10.587Z,9.30
2017-11-25T10:58:38.056Z,17.00
2017-11-25T11:01:05.546Z,8.70
2017-11-25T11:03:33.809Z,13.67
2017-11-25T11:06:02.084Z,12.67
2017-11-25T11:08:30.423Z,15.10
2017-11-25T11:10:58.085Z,14.30
2017-11-25T11:13:25.595Z,13.57
2017-11-25T11:15:53.955Z,11.17
2017-11-25T11:18:21.468Z,14.27
2017-11-25T11:20:48.950Z,11.97
2017-11-25T11:23:16.439Z,11.23
2017-11-25T11:25:44.832Z,11.50
2017-11-25T11:28:12.337Z,10.13
2017-11-25T11:30:39.926Z,5.03
2017-11-25T11:33:08.675Z,4.63
2017-11-25T11:35:36.476Z,4.70
2017-11-25T11:38:04.195Z,4.97
2017-11-25T11:40:31.903Z,4.87
2017-11-25T11:43:00.263Z,4.43
2017-11-25T11:45:28.456Z,5.80
2017-11-25T11:47:57.180Z,6.73
2017-11-25T11:50:24.692Z,5.50
2017-11-25T11:52:52.617Z,4.90
2017-11-25T11:55:20.307Z,5.07
2017-11-25T11:57:47.771Z,5.10
2017-11-25T12:00:15.245Z,5.37
2017-11-25T12:02:43.488Z,6.30
2017-11-25T12:05:11.707Z,6.37
2017-11-25T12:07:40.126Z,5.90
2017-11-25T12:10:07.848Z,7.20
2017-11-25T12:12:35.955Z,5.37
2017-11-25T12:15:04.541Z,4.73
2017-11-25T12:17:32.761Z,4.80
2017-11-25T12:20:01.041Z,4.83
2017-11-25T12:22:30.367Z,6.03
2017-11-25T12:24:57.844Z,8.70
2017-11-25T12:27:25.469Z,8.70
2017-11-25T12:29:53.748Z,6.43
2017-11-25T12:32:21.257Z,4.90
2017-11-25T12:34:48.736Z,4.77
2017-11-25T12:37:16.205Z,5.20
2017-11-25T12:39:44.646Z,5.20
2017-11-25T12:42:12.115Z,4.40
2017-11-25T12:44:39.587Z,4.37
2017-11-25T12:47:07.059Z,5.70
2017-11-25T12:49:35.310Z,5.03
2017-11-25T12:52:02.772Z,4.83
2017-11-25T12:54:30.239Z,5.37
2017-11-25T12:56:57.690Z,5.57
2017-11-25T12:59:25.173Z,4.87
2017-11-25T13:01:53.401Z,5.47
2017-11-25T13:04:20.872Z,4.93
2017-11-25T13:06:49.076Z,6.47
2017-11-25T13:09:17.285Z,5.90
2017-11-25T13:11:44.764Z,5.57
2017-11-25T13:14:12.222Z,5.70
2017-11-25T13:16:39.761Z,5.50
2017-11-25T13:19:07.241Z,5.70
2017-11-25T13:21:34.716Z,5.70
2017-11-25T13:24:02.167Z,5.63
2017-11-25T13:26:29.619Z,5.47
2017-11-25T13:28:57.094Z,5.93
2017-11-25T13:31:25.310Z,5.37
2017-11-25T13:33:52.787Z,5.90
2017-11-25T13:36:20.258Z,5.87
2017-11-25T13:38:47.718Z,5.70
2017-11-25T13:41:15.171Z,5.83
2017-11-25T13:43:42.721Z,5.10
2017-11-25T13:46:10.183Z,5.50
2017-11-25T13:48:37.646Z,5.43
2017-11-25T13:51:05.109Z,6.47
2017-11-25T13:53:32.657Z,6.70
2017-11-25T13:56:00.145Z,7.00
2017-11-25T13:58:28.728Z,7.20
2017-11-25T14:00:56.977Z,6.87
2017-11-25T14:03:24.944Z,8.00
2017-11-25T14:05:52.417Z,7.30
2017-11-25T14:08:19.874Z,6.80
2017-11-25T14:10:48.118Z,7.37
2017-11-25T14:13:15.770Z,7.87
2017-11-25T14:15:43.256Z,7.90
2017-11-25T14:18:10.774Z,7.10
2017-11-25T14:20:38.374Z,7.13
2017-11-25T14:23:06.128Z,7.07
2017-11-25T14:25:33.604Z,8.50
2017-11-25T14:28:01.242Z,7.90
2017-11-25T14:30:28.731Z,8.50
2017-11-25T14:32:56.976Z,8.57
2017-11-25T14:35:24.940Z,8.40
2017-11-25T14:37:52.417Z,7.97
2017-11-25T14:40:19.887Z,7.80
2017-11-25T14:42:47.338Z,9.17
2017-11-25T14:45:15.566Z,8.30
2017-11-25T14:47:43.162Z,9.00
2017-11-25T14:50:10.617Z,9.13
2017-11-25T14:52:38.196Z,8.90
2017-11-25T14:55:06.426Z,8.33
2017-11-25T14:57:33.892Z,8.30
2017-11-25T15:00:01.377Z,8.47
2017-11-25T15:02:28.876Z,9.17
2017-11-25T15:04:56.335Z,9.00
2017-11-25T15:07:23.794Z,8.93
2017-11-25T15:09:51.404Z,9.10
2017-11-25T15:12:18.922Z,7.53
2017-11-25T15:14:46.381Z,9.37
2017-11-25T15:17:13.853Z,9.40
2017-11-25T15:19:41.379Z,9.37
2017-11-25T15:22:08.891Z,8.97
2017-11-25T15:24:36.550Z,10.10
2017-11-25T15:27:04.013Z,9.10
2017-11-25T15:29:31.508Z,8.97
2017-11-25T15:31:59.179Z,8.57
2017-11-25T15:34:26.938Z,9.20
2017-11-25T15:36:54.525Z,8.90
2017-11-25T15:39:22.681Z,9.17
2017-11-25T15:41:50.138Z,8.77
2017-11-25T15:44:17.709Z,8.90
2017-11-25T15:46:45.683Z,7.70
2017-11-25T15:49:13.319Z,8.47
2017-11-25T15:51:40.786Z,8.80
2017-11-25T15:54:08.549Z,7.70
2017-11-25T15:56:36.022Z,9.20
2017-11-25T15:59:03.519Z,9.83
2017-11-25T16:01:31.754Z,13.63
2017-11-25T16:03:59.253Z,13.47
2017-11-25T16:06:27.484Z,10.60
2017-11-25T16:08:55.047Z,9.40
2017-11-25T16:11:22.499Z,7.57
2017-11-25T16:13:49.995Z,5.67
2017-11-25T16:16:18.370Z,6.20
2017-11-25T16:18:46.653Z,5.33
2017-11-25T16:21:14.902Z,5.07
2017-11-25T16:23:42.389Z,4.73
2017-11-25T16:26:10.781Z,3.93
2017-11-25T16:28:38.274Z,3.50
2017-11-25T16:31:05.734Z,4.90
2017-11-25T16:33:33.205Z,5.83
2017-11-25T16:36:00.665Z,4.30
2017-11-25T16:38:28.121Z,2.67
2017-11-25T16:40:55.585Z,2.00
2017-11-25T16:43:23.033Z,2.50
2017-11-25T16:45:50.502Z,2.53
2017-11-25T16:48:17.962Z,2.30
2017-11-25T16:50:45.429Z,1.43
2017-11-25T16:53:13.670Z,1.50
2017-11-25T16:55:41.120Z,1.90
2017-11-25T16:58:08.593Z,1.60
2017-11-25T17:00:36.053Z,2.10
2017-11-25T17:03:03.517Z,1.73
2017-11-25T17:05:30.974Z,1.60
2017-11-25T17:07:58.439Z,1.57
2017-11-25T17:10:25.899Z,2.10
2017-11-25T17:12:53.356Z,1.60
2017-11-25T17:15:21.578Z,1.83
2017-11-25T17:17:49.041Z,1.63
2017-11-25T17:20:16.489Z,1.73
2017-11-25T17:22:44.057Z,1.70
2017-11-25T17:25:11.512Z,1.80
2017-11-25T17:27:39.175Z,1.50
2017-11-25T17:30:06.626Z,1.73
2017-11-25T17:32:34.094Z,1.70
2017-11-25T17:35:01.567Z,1.70
2017-11-25T17:37:29.023Z,2.10
2017-11-25T17:39:56.489Z,1.70
2017-11-25T17:42:23.969Z,1.80
2017-11-25T17:44:52.211Z,2.17
2017-11-25T17:47:19.665Z,1.70
2017-11-25T17:49:47.129Z,2.23
2017-11-25T17:52:14.599Z,2.53
2017-11-25T17:54:42.067Z,2.50
2017-11-25T17:57:10.288Z,2.10
2017-11-25T17:59:37.766Z,2.20
2017-11-25T18:02:05.297Z,2.30
2017-11-25T18:04:32.762Z,2.30
2017-11-25T18:07:00.214Z,2.30
2017-11-25T18:09:27.681Z,2.20
2017-11-25T18:11:55.159Z,2.10
2017-11-25T18:14:22.634Z,1.90
2017-11-25T18:16:50.865Z,2.37
2017-11-25T18:19:18.322Z,1.63
2017-11-25T18:21:45.805Z,2.70
2017-11-25T18:24:13.265Z,2.67
2017-11-25T18:26:40.790Z,2.30
2017-11-25T18:29:08.438Z,1.80
2017-11-25T18:31:35.949Z,2.53
2017-11-25T18:34:03.432Z,1.90
2017-11-25T18:36:31.959Z,1.93
2017-11-25T18:38:59.431Z,2.10
2017-11-25T18:41:26.910Z,2.83
2017-11-25T18:43:54.359Z,2.63
2017-11-25T18:46:21.924Z,2.63
2017-11-25T18:48:50.141Z,2.63
2017-11-25T18:51:17.685Z,2.90
2017-11-25T18:53:45.278Z,2.83
2017-11-25T18:56:12.746Z,3.07
2017-11-25T18:58:40.240Z,2.30
2017-11-25T19:01:08.558Z,2.43
2017-11-25T19:03:36.183Z,2.60
2017-11-25T19:06:04.478Z,2.70
2017-11-25T19:08:32.007Z,2.57
2017-11-25T19:11:00.876Z,3.30
2017-11-25T19:13:28.560Z,2.90
2017-11-25T19:15:56.883Z,3.43
2017-11-25T19:18:24.512Z,3.10
2017-11-25T19:20:52.009Z,2.70
2017-11-25T19:23:19.478Z,3.20
2017-11-25T19:25:46.940Z,3.07
2017-11-25T19:28:14.605Z,4.17
2017-11-25T19:30:43.010Z,4.00
2017-11-25T19:33:10.590Z,3.93
2017-11-25T19:35:38.274Z,3.60
2017-11-25T19:38:05.933Z,4.30
2017-11-25T19:40:33.633Z,4.40
2017-11-25T19:43:01.099Z,3.70
2017-11-25T19:45:28.570Z,3.63
2017-11-25T19:47:56.988Z,4.50
2017-11-25T19:50:26.408Z,3.73
2017-11-25T19:52:54.850Z,3.77
2017-11-25T19:55:22.307Z,4.90
2017-11-25T19:57:49.782Z,4.43
2017-11-25T20:00:17.239Z,5.30
2017-11-25T20:02:44.711Z,4.87
2017-11-25T20:05:12.186Z,4.30
2017-11-25T20:07:39.683Z,4.90
2017-11-25T20:10:07.950Z,5.10
2017-11-25T20:12:36.275Z,4.40
2017-11-25T20:15:03.759Z,5.30
2017-11-25T20:17:31.255Z,4.80
2017-11-25T20:19:58.853Z,4.70
2017-11-25T20:22:26.361Z,4.90
2017-11-25T20:24:54.835Z,5.10
2017-11-25T20:27:23.057Z,6.07
2017-11-25T20:29:50.536Z,4.83
2017-11-25T20:32:18.182Z,4.33
2017-11-25T20:34:45.686Z,4.37
2017-11-25T20:37:13.135Z,4.17
2017-11-25T20:39:41.435Z,4.80
2017-11-25T20:42:08.913Z,3.73
2017-11-25T20:44:36.473Z,4.37
2017-11-25T20:47:03.953Z,4.33
2017-11-25T20:49:32.953Z,3.90
2017-11-25T20:52:00.743Z,4.60
2017-11-25T20:54:28.488Z,4.03
2017-11-25T20:56:56.041Z,4.03
2017-11-25T20:59:23.514Z,4.37
2017-11-25T21:01:50.971Z,4.07
2017-11-25T21:04:18.535Z,3.87
2017-11-25T21:06:45.998Z,4.13
2017-11-25T21:09:14.220Z,4.03
2017-11-25T21:11:41.690Z,4.23
2017-11-25T21:14:09.278Z,4.43
2017-11-25T21:16:36.773Z,4.80
2017-11-25T21:19:04.268Z,4.73
2017-11-25T21:21:31.803Z,4.87
2017-11-25T21:23:59.322Z,5.10
2017-11-25T21:26:27.782Z,5.80
2017-11-25T21:28:55.259Z,5.33
2017-11-25T21:31:23.490Z,6.07
2017-11-25T21:33:51.003Z,5.80
2017-11-25T21:36:19.327Z,5.47
2017-11-25T21:38:46.803Z,4.93
2017-11-25T21:41:14.346Z,4.63
2017-11-25T21:43:41.818Z,4.60
2017-11-25T21:46:09.434Z,5.57
2017-11-25T21:48:36.914Z,5.50
2017-11-25T21:51:04.365Z,5.80
2017-11-25T21:53:31.829Z,6.30
2017-11-25T21:55:59.381Z,6.03
2017-11-25T21:58:26.857Z,6.20
2017-11-25T22:00:54.318Z,6.00
2017-11-25T22:03:21.781Z,6.13
2017-11-25T22:05:49.258Z,6.77
2017-11-25T22:08:17.496Z,5.80
2017-11-25T22:10:45.029Z,5.53
2017-11-25T22:13:12.534Z,6.73
2017-11-25T22:15:40.191Z,6.70
2017-11-25T22:18:07.686Z,5.37
2017-11-25T22:20:35.116Z,6.33
2017-11-25T22:23:02.566Z,6.60
2017-11-25T22:25:30.746Z,6.87
2017-11-25T22:27:58.185Z,5.87
2017-11-25T22:30:25.687Z,6.60
2017-11-25T22:32:53.952Z,6.77
2017-11-25T22:35:22.224Z,7.53
2017-11-25T22:37:49.774Z,7.00
2017-11-25T22:40:17.250Z,7.40
2017-11-25T22:42:44.715Z,7.27
2017-11-25T22:45:13.145Z,7.40
2017-11-25T22:47:40.628Z,7.60
2017-11-25T22:50:08.997Z,7.27
2017-11-25T22:52:36.468Z,7.70
2017-11-25T22:55:04.718Z,7.03
2017-11-25T22:57:32.163Z,7.30
2017-11-25T22:59:59.638Z,6.97
2017-11-25T23:02:27.093Z,7.37
2017-11-25T23:04:56.078Z,8.60
2017-11-25T23:07:23.565Z,7.70
2017-11-25T23:09:51.826Z,7.80
2017-11-25T23:12:19.287Z,8.23
2017-11-25T23:14:47.522Z,8.27
2017-11-25T23:17:15.013Z,8.47
2017-11-25T23:19:42.501Z,7.37
2017-11-25T23:22:09.951Z,7.10
2017-11-25T23:24:37.524Z,7.37
2017-11-25T23:27:04.975Z,7.17
2017-11-25T23:29:32.488Z,7.20
2017-11-25T23:31:59.975Z,7.00
2017-11-25T23:34:28.217Z,7.20
2017-11-25T23:36:55.775Z,7.57
2017-11-25T23:39:23.262Z,7.13
2017-11-25T23:41:51.497Z,7.33
2017-11-25T23:44:19.100Z,6.70
2017-11-25T23:46:47.367Z,7.83
2017-11-25T23:49:15.802Z,7.37
2017-11-25T23:51:43.270Z,7.77
2017-11-25T23:54:10.748Z,9.30
2017-11-25T23:56:38.361Z,7.37
2017-11-25T23:59:05.839Z,6.80
